createdAt,value
2018-04-01T00:00:19.439Z,11.93
2018-04-01T00:02:47.356Z,13.70
2018-04-01T00:05:15.278Z,13.07
2018-04-01T00:07:43.196Z,13.30
2018-04-01T00:10:11.000Z,12.30
2018-04-01T00:12:38.751Z,13.20
2018-04-01T00:15:06.651Z,12.43
2018-04-01T00:17:34.449Z,11.67
2018-04-01T00:20:02.196Z,8.03
2018-04-01T00:22:29.940Z,7.47
2018-04-01T00:24:57.954Z,8.80
2018-04-01T00:27:25.844Z,9.23
2018-04-01T00:29:53.571Z,10.40
2018-04-01T00:32:21.447Z,9.93
2018-04-01T00:34:49.154Z,9.67
2018-04-01T00:37:16.918Z,5.63
2018-04-01T00:39:44.726Z,3.73
2018-04-01T00:42:12.455Z,3.80
2018-04-01T00:44:40.978Z,2.93
2018-04-01T00:47:08.697Z,3.60
2018-04-01T00:49:36.423Z,2.30
2018-04-01T00:52:05.135Z,3.40
2018-04-01T00:54:32.870Z,4.33
2018-04-01T00:57:00.775Z,3.30
2018-04-01T00:59:28.593Z,2.23
2018-04-01T01:01:56.512Z,1.73
2018-04-01T01:04:24.431Z,1.90
2018-04-01T01:06:52.361Z,1.40
2018-04-01T01:09:20.172Z,1.67
2018-04-01T01:11:48.396Z,2.20
2018-04-01T01:14:16.212Z,1.20
2018-04-01T01:16:44.029Z,1.67
2018-04-01T01:19:11.914Z,1.80
2018-04-01T01:21:39.768Z,1.63
2018-04-01T01:24:07.503Z,1.73
2018-04-01T01:26:35.402Z,1.73
2018-04-01T01:29:03.282Z,1.80
2018-04-01T01:31:31.049Z,2.00
2018-04-01T01:33:59.057Z,2.10
2018-04-01T01:36:26.880Z,2.20
2018-04-01T01:38:54.705Z,2.30
2018-04-01T01:41:22.492Z,2.60
2018-04-01T01:43:50.233Z,2.53
2018-04-01T01:46:18.058Z,2.37
2018-04-01T01:48:45.881Z,2.10
2018-04-01T01:51:13.688Z,2.33
2018-04-01T01:53:41.512Z,2.33
2018-04-01T01:56:09.392Z,2.30
2018-04-01T01:58:37.252Z,2.40
2018-04-01T02:01:05.070Z,2.67
2018-04-01T02:03:32.844Z,2.10
2018-04-01T02:06:00.701Z,2.40
2018-04-01T02:08:28.520Z,1.93
2018-04-01T02:10:56.440Z,2.30
2018-04-01T02:13:24.157Z,2.33
2018-04-01T02:15:51.887Z,2.03
2018-04-01T02:18:19.695Z,1.87
2018-04-01T02:20:47.520Z,1.73
2018-04-01T02:23:15.434Z,1.50
2018-04-01T02:25:43.556Z,0.90
2018-04-01T02:28:11.470Z,0.80
2018-04-01T02:30:39.162Z,0.60
2018-04-01T02:33:06.911Z,0.70
2018-04-01T02:35:34.688Z,0.57
2018-04-01T02:38:02.440Z,0.83
2018-04-01T02:40:30.370Z,0.40
2018-04-01T02:42:58.385Z,0.60
2018-04-01T02:45:26.708Z,0.50
2018-04-01T02:47:54.601Z,0.40
2018-04-01T02:50:22.409Z,0.60
2018-04-01T02:52:50.185Z,0.77
2018-04-01T02:55:17.982Z,0.50
2018-04-01T02:57:45.799Z,0.70
2018-04-01T03:00:13.585Z,0.60
2018-04-01T03:02:41.449Z,0.53
2018-04-01T03:05:09.171Z,0.70
2018-04-01T03:07:37.184Z,0.70
2018-04-01T03:10:05.072Z,0.50
2018-04-01T03:12:32.913Z,0.50
2018-04-01T03:15:00.832Z,0.83
2018-04-01T03:17:28.560Z,0.73
2018-04-01T03:19:56.467Z,0.93
2018-04-01T03:22:24.287Z,0.70
2018-04-01T03:24:52.167Z,0.80
2018-04-01T03:27:20.025Z,0.60
2018-04-01T03:29:47.947Z,1.07
2018-04-01T03:32:15.764Z,0.70
2018-04-01T03:34:43.586Z,1.03
2018-04-01T03:37:11.414Z,1.10
2018-04-01T03:39:39.220Z,0.77
2018-04-01T03:42:07.139Z,0.80
2018-04-01T03:44:34.965Z,0.90
2018-04-01T03:47:02.695Z,0.90
2018-04-01T03:49:30.511Z,0.80
2018-04-01T03:51:58.619Z,0.80
2018-04-01T03:54:26.333Z,1.20
2018-04-01T03:56:54.357Z,0.87
2018-04-01T03:59:22.273Z,0.87
2018-04-01T04:01:50.089Z,1.00
2018-04-01T04:04:17.810Z,1.30
2018-04-01T04:06:45.729Z,0.93
2018-04-01T04:09:13.545Z,1.10
2018-04-01T04:11:41.363Z,0.77
2018-04-01T04:14:09.285Z,1.00
2018-04-01T04:16:37.104Z,0.70
2018-04-01T04:19:05.728Z,1.00
2018-04-01T04:21:33.569Z,0.90
2018-04-01T04:24:01.467Z,0.80
2018-04-01T04:26:29.360Z,1.10
2018-04-01T04:28:57.110Z,1.40
2018-04-01T04:31:24.918Z,1.23
2018-04-01T04:33:52.755Z,1.07
2018-04-01T04:36:20.525Z,1.80
2018-04-01T04:38:48.291Z,1.10
2018-04-01T04:41:16.110Z,1.10
2018-04-01T04:43:43.914Z,1.10
2018-04-01T04:46:11.832Z,1.20
2018-04-01T04:48:39.615Z,1.27
2018-04-01T04:51:07.365Z,1.00
2018-04-01T04:53:35.290Z,1.10
2018-04-01T04:56:03.184Z,1.30
2018-04-01T04:58:30.924Z,1.23
2018-04-01T05:00:58.842Z,1.10
2018-04-01T05:03:27.365Z,1.23
2018-04-01T05:05:55.080Z,0.90
2018-04-01T05:08:23.005Z,1.03
2018-04-01T05:10:50.859Z,1.00
2018-04-01T05:13:18.645Z,1.47
2018-04-01T05:15:46.362Z,1.10
2018-04-01T05:18:14.075Z,2.00
2018-04-01T05:20:41.978Z,1.20
2018-04-01T05:23:09.916Z,0.90
2018-04-01T05:25:38.435Z,1.07
2018-04-01T05:28:06.256Z,1.23
2018-04-01T05:30:34.096Z,1.17
2018-04-01T05:33:01.905Z,0.90
2018-04-01T05:35:29.627Z,1.10
2018-04-01T05:37:57.393Z,0.90
2018-04-01T05:40:25.252Z,1.07
2018-04-01T05:42:53.087Z,0.80
2018-04-01T05:45:20.889Z,1.10
2018-04-01T05:47:48.603Z,1.00
2018-04-01T05:50:16.724Z,0.87
2018-04-01T05:52:44.554Z,0.80
2018-04-01T05:55:12.271Z,0.90
2018-04-01T05:57:40.016Z,1.23
2018-04-01T06:00:07.899Z,0.80
2018-04-01T06:02:36.736Z,1.00
2018-04-01T06:05:04.507Z,0.90
2018-04-01T06:07:32.212Z,1.10
2018-04-01T06:10:00.078Z,1.40
2018-04-01T06:12:28.000Z,1.00
2018-04-01T06:14:57.543Z,1.20
2018-04-01T06:17:26.254Z,0.90
2018-04-01T06:19:53.981Z,2.60
2018-04-01T06:22:21.779Z,1.30
2018-04-01T06:24:49.598Z,1.60
2018-04-01T06:27:19.267Z,1.93
2018-04-01T06:29:48.147Z,1.10
2018-04-01T06:32:15.984Z,1.13
2018-04-01T06:34:43.793Z,1.40
2018-04-01T06:37:11.702Z,1.83
2018-04-01T06:39:40.543Z,5.97
2018-04-01T06:42:09.144Z,6.10
2018-04-01T06:44:37.068Z,3.03
2018-04-01T06:47:04.843Z,11.30
2018-04-01T06:49:32.707Z,4.63
2018-04-01T06:52:00.537Z,1.43
2018-04-01T06:54:28.320Z,4.47
2018-04-01T06:56:56.113Z,4.10
2018-04-01T06:59:23.986Z,2.10
2018-04-01T07:01:51.897Z,5.30
2018-04-01T07:04:19.687Z,6.90
2018-04-01T07:06:47.535Z,2.77
2018-04-01T07:09:15.326Z,4.10
2018-04-01T07:11:43.092Z,2.27
2018-04-01T07:14:10.882Z,1.50
2018-04-01T07:16:38.708Z,1.67
2018-04-01T07:19:06.542Z,2.43
2018-04-01T07:21:34.363Z,1.83
2018-04-01T07:24:02.164Z,1.50
2018-04-01T07:26:29.992Z,1.43
2018-04-01T07:28:57.741Z,1.93
2018-04-01T07:31:25.435Z,1.20
2018-04-01T07:33:53.339Z,0.70
2018-04-01T07:36:21.188Z,1.70
2018-04-01T07:38:48.990Z,1.37
2018-04-01T07:41:16.868Z,0.73
2018-04-01T07:43:45.225Z,0.70
2018-04-01T07:46:13.136Z,1.10
2018-04-01T07:48:40.868Z,0.90
2018-04-01T07:51:08.671Z,1.10
2018-04-01T07:53:36.596Z,1.20
2018-04-01T07:56:05.312Z,1.10
2018-04-01T07:58:33.331Z,1.00
2018-04-01T08:01:01.663Z,2.70
2018-04-01T08:03:29.452Z,3.23
2018-04-01T08:05:57.389Z,1.13
2018-04-01T08:08:25.277Z,1.80
2018-04-01T08:10:53.129Z,1.10
2018-04-01T08:13:20.881Z,0.93
2018-04-01T08:15:48.764Z,0.73
2018-04-01T08:18:16.487Z,1.00
2018-04-01T08:20:44.304Z,1.53
2018-04-01T08:23:12.104Z,1.70
2018-04-01T08:25:42.146Z,3.00
2018-04-01T08:28:09.966Z,0.93
2018-04-01T08:30:37.788Z,2.23
2018-04-01T08:33:05.533Z,1.03
2018-04-01T08:35:33.428Z,0.80
2018-04-01T08:38:01.249Z,1.20
2018-04-01T08:40:29.662Z,1.00
2018-04-01T08:42:58.260Z,0.90
2018-04-01T08:45:26.812Z,0.80
2018-04-01T08:47:57.130Z,0.67
2018-04-01T08:50:25.140Z,0.80
2018-04-01T08:52:53.040Z,0.73
2018-04-01T08:55:20.802Z,0.47
2018-04-01T08:57:48.707Z,0.50
2018-04-01T09:00:16.582Z,0.50
2018-04-01T09:02:44.346Z,1.30
2018-04-01T09:05:12.197Z,1.23
2018-04-01T09:07:39.909Z,0.77
2018-04-01T09:10:07.702Z,0.70
2018-04-01T09:12:35.520Z,0.50
2018-04-01T09:15:03.341Z,0.60
2018-04-01T09:17:31.227Z,4.10
2018-04-01T09:19:59.741Z,2.00
2018-04-01T09:22:27.602Z,2.73
2018-04-01T09:24:55.515Z,1.17
2018-04-01T09:27:23.295Z,0.77
2018-04-01T09:29:51.157Z,1.00
2018-04-01T09:32:19.079Z,1.23
2018-04-01T09:34:46.993Z,0.70
2018-04-01T09:37:14.958Z,1.30
2018-04-01T09:39:42.934Z,1.00
2018-04-01T09:42:10.660Z,1.20
2018-04-01T09:44:38.569Z,0.50
2018-04-01T09:47:06.492Z,0.97
2018-04-01T09:49:34.374Z,0.60
2018-04-01T09:52:02.227Z,1.03
2018-04-01T09:54:29.975Z,1.00
2018-04-01T09:56:57.778Z,0.80
2018-04-01T09:59:25.682Z,0.60
2018-04-01T10:01:54.103Z,0.50
2018-04-01T10:04:22.439Z,0.70
2018-04-01T10:06:50.863Z,0.40
2018-04-01T10:09:19.565Z,1.00
2018-04-01T10:11:48.251Z,0.60
2018-04-01T10:14:17.010Z,0.83
2018-04-01T10:16:45.831Z,1.00
2018-04-01T10:19:14.552Z,0.63
2018-04-01T10:21:43.277Z,1.30
2018-04-01T10:24:11.996Z,1.30
2018-04-01T10:26:40.690Z,0.70
2018-04-01T10:29:09.393Z,0.80
2018-04-01T10:31:38.772Z,1.10
2018-04-01T10:34:07.387Z,1.00
2018-04-01T10:36:36.010Z,1.07
2018-04-01T10:39:04.731Z,2.60
2018-04-01T10:41:33.452Z,1.50
2018-04-01T10:44:02.174Z,2.47
2018-04-01T10:46:30.794Z,1.00
2018-04-01T10:48:59.433Z,1.10
2018-04-01T10:51:28.038Z,1.70
2018-04-01T10:53:56.967Z,0.70
2018-04-01T10:56:25.189Z,1.40
2018-04-01T10:58:53.071Z,0.70
2018-04-01T11:01:21.124Z,0.97
2018-04-01T11:03:48.852Z,1.20
2018-04-01T11:06:16.572Z,0.93
2018-04-01T11:08:44.375Z,0.80
2018-04-01T11:11:12.100Z,0.50
2018-04-01T11:13:39.912Z,0.70
2018-04-01T11:16:07.857Z,0.60
2018-04-01T11:18:35.750Z,0.80
2018-04-01T11:21:03.546Z,0.60
2018-04-01T11:23:31.296Z,0.83
2018-04-01T11:25:59.251Z,0.77
2018-04-01T11:28:27.126Z,1.00
2018-04-01T11:30:54.960Z,0.97
2018-04-01T11:33:22.862Z,1.27
2018-04-01T11:35:50.785Z,1.17
2018-04-01T11:38:18.508Z,0.90
2018-04-01T11:40:46.320Z,0.80
2018-04-01T11:43:15.054Z,0.97
2018-04-01T11:45:42.758Z,0.70
2018-04-01T11:48:11.083Z,1.17
2018-04-01T11:50:38.975Z,0.60
2018-04-01T11:53:06.868Z,0.43
2018-04-01T11:55:34.738Z,0.70
2018-04-01T11:58:03.364Z,0.90
2018-04-01T12:00:31.175Z,0.53
2018-04-01T12:02:59.027Z,0.70
2018-04-01T12:05:26.914Z,0.70
2018-04-01T12:07:54.739Z,0.73
2018-04-01T12:10:22.451Z,0.50
2018-04-01T12:12:50.369Z,0.60
2018-04-01T12:15:18.893Z,0.70
2018-04-01T12:17:46.615Z,1.17
2018-04-01T12:20:14.429Z,0.60
2018-04-01T12:22:42.157Z,0.90
2018-04-01T12:25:10.070Z,0.70
2018-04-01T12:27:37.953Z,0.70
2018-04-01T12:30:05.809Z,0.63
2018-04-01T12:32:33.687Z,0.60
2018-04-01T12:35:01.412Z,0.80
2018-04-01T12:37:29.259Z,1.27
2018-04-01T12:39:57.382Z,6.07
2018-04-01T12:42:25.732Z,1.10
2018-04-01T12:44:53.474Z,1.10
2018-04-01T12:47:21.284Z,1.00
2018-04-01T12:49:49.258Z,0.63
2018-04-01T12:52:16.997Z,0.97
2018-04-01T12:54:44.693Z,0.80
2018-04-01T12:57:12.612Z,1.10
2018-04-01T12:59:40.533Z,1.10
2018-04-01T13:02:08.350Z,0.70
2018-04-01T13:04:36.772Z,0.87
2018-04-01T13:07:04.590Z,0.80
2018-04-01T13:09:32.512Z,0.73
2018-04-01T13:12:00.328Z,0.90
2018-04-01T13:14:28.247Z,0.90
2018-04-01T13:16:56.167Z,0.90
2018-04-01T13:19:23.926Z,0.93
2018-04-01T13:21:51.919Z,0.70
2018-04-01T13:24:19.724Z,1.00
2018-04-01T13:26:47.546Z,0.80
2018-04-01T13:29:15.361Z,0.87
2018-04-01T13:31:43.178Z,1.57
2018-04-01T13:34:11.002Z,1.00
2018-04-01T13:36:38.716Z,0.90
2018-04-01T13:39:06.638Z,1.10
2018-04-01T13:41:34.556Z,0.90
2018-04-01T13:44:02.375Z,0.80
2018-04-01T13:46:30.267Z,1.07
2018-04-01T13:48:58.027Z,1.10
2018-04-01T13:51:25.899Z,0.87
2018-04-01T13:53:54.150Z,1.00
2018-04-01T13:56:22.071Z,1.00
2018-04-01T13:58:49.992Z,1.10
2018-04-01T14:01:17.806Z,1.40
2018-04-01T14:03:45.728Z,1.10
2018-04-01T14:06:13.527Z,0.73
2018-04-01T14:08:41.363Z,1.80
2018-04-01T14:11:09.190Z,0.60
2018-04-01T14:13:36.905Z,0.70
2018-04-01T14:16:04.723Z,0.60
2018-04-01T14:18:32.517Z,0.80
2018-04-01T14:21:00.364Z,1.03
2018-04-01T14:23:28.176Z,1.13
2018-04-01T14:25:55.906Z,1.10
2018-04-01T14:28:23.819Z,1.57
2018-04-01T14:30:51.641Z,1.20
2018-04-01T14:33:19.554Z,1.37
2018-04-01T14:35:47.369Z,1.13
2018-04-01T14:38:15.187Z,1.37
2018-04-01T14:40:43.108Z,1.20
2018-04-01T14:43:11.656Z,1.00
2018-04-01T14:45:39.462Z,1.10
2018-04-01T14:48:07.292Z,1.30
2018-04-01T14:50:35.086Z,1.20
2018-04-01T14:53:02.828Z,1.20
2018-04-01T14:55:30.587Z,1.20
2018-04-01T14:57:58.356Z,3.23
2018-04-01T15:00:26.157Z,2.77
2018-04-01T15:02:53.885Z,0.97
2018-04-01T15:05:22.702Z,3.33
2018-04-01T15:07:50.622Z,4.47
2018-04-01T15:10:19.513Z,1.63
2018-04-01T15:12:48.162Z,1.30
2018-04-01T15:15:16.871Z,1.37
2018-04-01T15:17:44.612Z,0.97
2018-04-01T15:20:12.324Z,1.10
2018-04-01T15:22:40.122Z,1.00
2018-04-01T15:25:07.963Z,0.77
2018-04-01T15:27:35.684Z,0.80
2018-04-01T15:30:03.514Z,0.80
2018-04-01T15:32:31.215Z,0.90
2018-04-01T15:34:58.985Z,0.97
2018-04-01T15:37:26.766Z,1.03
2018-04-01T15:39:54.648Z,1.40
2018-04-01T15:42:23.357Z,1.30
2018-04-01T15:44:51.097Z,1.20
2018-04-01T15:47:18.785Z,1.03
2018-04-01T15:49:46.466Z,1.20
2018-04-01T15:52:14.213Z,0.90
2018-04-01T15:54:41.914Z,1.10
2018-04-01T15:57:09.642Z,2.70
2018-04-01T15:59:37.421Z,2.10
2018-04-01T16:02:06.244Z,0.87
2018-04-01T16:04:34.262Z,1.43
2018-04-01T16:07:01.995Z,1.40
2018-04-01T16:09:29.800Z,1.07
2018-04-01T16:11:57.528Z,2.80
2018-04-01T16:14:25.335Z,1.47
2018-04-01T16:16:53.256Z,2.40
2018-04-01T16:19:21.086Z,1.60
2018-04-01T16:21:48.777Z,1.20
2018-04-01T16:24:16.611Z,1.80
2018-04-01T16:26:44.458Z,1.23
2018-04-01T16:29:12.184Z,1.60
2018-04-01T16:31:40.067Z,1.60
2018-04-01T16:34:07.811Z,1.53
2018-04-01T16:36:35.623Z,1.63
2018-04-01T16:39:04.291Z,2.07
2018-04-01T16:41:32.013Z,2.07
2018-04-01T16:43:59.863Z,1.80
2018-04-01T16:46:27.585Z,1.70
2018-04-01T16:48:55.313Z,1.43
2018-04-01T16:51:23.180Z,1.57
2018-04-01T16:53:51.040Z,1.70
2018-04-01T16:56:18.759Z,1.40
2018-04-01T16:58:46.574Z,1.93
2018-04-01T17:01:14.498Z,1.63
2018-04-01T17:03:42.171Z,1.50
2018-04-01T17:06:09.953Z,1.83
2018-04-01T17:08:37.749Z,1.30
2018-04-01T17:11:05.590Z,30.83
2018-04-01T17:13:33.486Z,12.20
2018-04-01T17:16:01.311Z,2.03
2018-04-01T17:18:29.326Z,1.40
2018-04-01T17:20:57.048Z,2.10
2018-04-01T17:23:24.736Z,3.17
2018-04-01T17:25:52.589Z,4.70
2018-04-01T17:28:20.399Z,1.67
2018-04-01T17:30:48.196Z,2.00
2018-04-01T17:33:15.937Z,2.30
2018-04-01T17:35:43.755Z,2.07
2018-04-01T17:38:11.603Z,1.67
2018-04-01T17:40:39.405Z,1.90
2018-04-01T17:43:07.115Z,2.50
2018-04-01T17:45:35.040Z,2.07
2018-04-01T17:48:02.911Z,1.67
2018-04-01T17:50:30.620Z,1.80
2018-04-01T17:52:58.468Z,1.53
2018-04-01T17:55:26.262Z,2.00
2018-04-01T17:57:54.016Z,1.70
2018-04-01T18:00:21.949Z,1.90
2018-04-01T18:02:49.761Z,3.83
2018-04-01T18:05:17.813Z,2.87
2018-04-01T18:07:45.801Z,1.77
2018-04-01T18:10:13.539Z,2.20
2018-04-01T18:12:41.226Z,1.33
2018-04-01T18:15:08.978Z,2.00
2018-04-01T18:17:36.712Z,2.90
2018-04-01T18:20:04.419Z,3.40
2018-04-01T18:22:32.214Z,3.97
2018-04-01T18:25:00.030Z,4.30
2018-04-01T18:27:27.849Z,4.10
2018-04-01T18:29:55.586Z,3.97
2018-04-01T18:32:24.189Z,4.37
2018-04-01T18:34:52.108Z,2.17
2018-04-01T18:37:19.833Z,2.83
2018-04-01T18:39:47.499Z,2.77
2018-04-01T18:42:15.268Z,2.23
2018-04-01T18:44:43.786Z,1.83
2018-04-01T18:47:11.714Z,4.80
2018-04-01T18:49:39.480Z,3.90
2018-04-01T18:52:07.341Z,3.70
2018-04-01T18:54:35.159Z,3.23
2018-04-01T18:57:03.080Z,3.10
2018-04-01T18:59:31.197Z,2.60
2018-04-01T19:01:59.024Z,3.00
2018-04-01T19:04:26.772Z,2.40
2018-04-01T19:06:54.461Z,2.77
2018-04-01T19:09:22.172Z,2.67
2018-04-01T19:11:49.912Z,2.97
2018-04-01T19:14:17.634Z,2.47
2018-04-01T19:17:03.610Z,2.50
2018-04-01T19:19:31.899Z,3.20
2018-04-01T19:22:00.502Z,3.53
2018-04-01T19:24:29.254Z,3.23
2018-04-01T19:26:57.953Z,3.43
2018-04-01T19:29:26.700Z,3.10
2018-04-01T19:31:55.283Z,4.40
2018-04-01T19:34:23.917Z,2.93
2018-04-01T19:36:52.666Z,3.27
2018-04-01T19:39:21.300Z,3.10
2018-04-01T19:41:50.009Z,1.67
2018-04-01T19:44:18.728Z,3.80
2018-04-01T19:46:47.450Z,3.63
2018-04-01T19:49:16.761Z,3.83
2018-04-01T19:51:45.603Z,3.30
2018-04-01T19:54:14.223Z,2.83
2018-04-01T19:56:42.940Z,3.07
2018-04-01T19:59:11.605Z,2.87
2018-04-01T20:01:40.391Z,3.43
2018-04-01T20:04:09.107Z,5.43
2018-04-01T20:06:37.931Z,3.47
2018-04-01T20:09:06.661Z,3.70
2018-04-01T20:11:35.382Z,3.50
2018-04-01T20:14:04.720Z,2.73
2018-04-01T20:16:33.418Z,3.23
2018-04-01T20:19:02.440Z,3.03
2018-04-01T20:21:31.062Z,3.70
2018-04-01T20:23:59.786Z,3.93
2018-04-01T20:26:28.455Z,3.17
2018-04-01T20:28:57.665Z,3.20
2018-04-01T20:31:26.451Z,3.57
2018-04-01T20:33:55.173Z,2.90
2018-04-01T20:36:23.897Z,2.90
2018-04-01T20:38:52.517Z,2.87
2018-04-01T20:41:21.093Z,2.23
2018-04-01T20:43:49.862Z,2.47
2018-04-01T20:46:19.115Z,2.37
2018-04-01T20:48:47.878Z,2.77
2018-04-01T20:51:16.541Z,2.63
2018-04-01T20:53:46.183Z,2.50
2018-04-01T20:56:15.703Z,4.70
2018-04-01T20:58:44.610Z,3.13
2018-04-01T21:01:13.522Z,3.83
2018-04-01T21:03:42.128Z,3.80
2018-04-01T21:06:10.881Z,3.77
2018-04-01T21:08:39.428Z,5.93
2018-04-01T21:11:08.054Z,4.30
2018-04-01T21:13:36.795Z,4.97
2018-04-01T21:16:05.338Z,4.47
2018-04-01T21:18:34.105Z,5.77
2018-04-01T21:21:03.672Z,4.93
2018-04-01T21:23:33.289Z,7.33
2018-04-01T21:26:01.891Z,6.37
2018-04-01T21:28:30.572Z,5.27
2018-04-01T21:30:59.968Z,5.13
2018-04-01T21:33:28.564Z,6.07
2018-04-01T21:35:57.205Z,5.77
2018-04-01T21:38:25.916Z,5.13
2018-04-01T21:40:55.538Z,6.27
2018-04-01T21:43:24.232Z,5.83
2018-04-01T21:45:52.987Z,5.97
2018-04-01T21:48:21.629Z,6.70
2018-04-01T21:50:50.296Z,6.20
2018-04-01T21:53:20.104Z,6.20
2018-04-01T21:55:49.348Z,9.37
2018-04-01T21:58:18.100Z,4.27
2018-04-01T22:00:46.742Z,4.43
2018-04-01T22:03:15.362Z,4.70
2018-04-01T22:05:45.279Z,4.70
2018-04-01T22:08:13.852Z,5.33
2018-04-01T22:10:42.611Z,4.47
2018-04-01T22:13:11.274Z,12.90
2018-04-01T22:15:40.053Z,5.67
2018-04-01T22:18:09.481Z,6.60
2018-04-01T22:20:38.214Z,6.30
2018-04-01T22:23:13.693Z,5.00
2018-04-01T22:25:42.671Z,5.10
2018-04-01T22:28:11.694Z,4.53
2018-04-01T22:30:41.287Z,4.73
2018-04-01T22:33:09.939Z,4.00
2018-04-01T22:35:38.701Z,3.50
2018-04-01T22:38:07.495Z,4.20
2018-04-01T22:40:36.208Z,4.27
2018-04-01T22:43:04.830Z,4.77
2018-04-01T22:45:33.551Z,5.07
2018-04-01T22:48:02.874Z,4.40
2018-04-01T22:50:31.436Z,5.23
2018-04-01T22:53:00.136Z,5.17
2018-04-01T22:55:28.803Z,4.60
2018-04-01T22:57:57.559Z,4.23
2018-04-01T23:00:26.485Z,4.60
2018-04-01T23:02:55.307Z,9.30
2018-04-01T23:05:23.995Z,4.43
2018-04-01T23:07:52.659Z,4.07
2018-04-01T23:10:21.377Z,4.40
2018-04-01T23:12:50.520Z,4.60
2018-04-01T23:15:19.124Z,5.13
2018-04-01T23:17:48.605Z,4.97
2018-04-01T23:20:17.295Z,4.43
2018-04-01T23:22:48.644Z,3.97
2018-04-01T23:25:17.413Z,3.57
2018-04-01T23:27:46.031Z,3.13
2018-04-01T23:30:15.162Z,3.50
2018-04-01T23:32:43.782Z,3.40
2018-04-01T23:35:12.401Z,2.67
2018-04-01T23:37:41.125Z,2.57
2018-04-01T23:40:09.767Z,2.33
2018-04-01T23:42:38.545Z,2.10
2018-04-01T23:45:07.162Z,2.30
2018-04-01T23:47:35.880Z,2.77
2018-04-01T23:50:04.532Z,2.50
2018-04-01T23:52:33.256Z,2.90
2018-04-01T23:55:01.929Z,2.70
2018-04-01T23:57:30.597Z,2.20
2018-04-01T23:59:59.152Z,2.30
